Terminal Aerodrome Forecast
Issued by NWS Central Illinois

Home | Current Version | Previous Version | Text Only | Print | Product List | Glossary On
Versions: 1 2 3 4 5 6 7 8 9 10 11 12 13 14 15 16 17 18 19
000
FTUS43 KILX 261727 AAE
TAFPIA
TAF AMD
KPIA 261727Z 2617/2718 25010KT P6SM OVC020
     FM262200 25007KT 6SM SHRA VCTS OVC025CB
     FM270100 33005KT 5SM SHRA OVC020
     FM270600 30007KT P6SM VCSH OVC008
     FM271500 27010KT P6SM BKN020=

USA.gov is the U.S. government's official web portal to all federal, state and local government web resources and services.